Hewittsville, Illinois
Current Conditions -  °F | °C
As of 10:55 AM on Thursday 23 Oct 2014 (Local Time) from KTAZ Reporting Station
Clear Clear  
Wind Chill: 52°   Ceiling: Unl
Heat Index: 52°   Visibility: 10mi
Dew Point: 45°   Wind: 7mph
Humidity: 76%   Direction: 180°S
Pressure: 30.21"   Gusts: NA
Location:  39.5521°N, 89.3216°W
Report Text: KTAZ 231555Z AUTO 18006KT 10SM CLR 11/07 A3021 RMK AO2
Loading
Personal Weather Stations






























Interactive Weather Map
Tropical Storm Tracking
New forecast layout! Learn more

10-Day Weather Forecast

Advertisements
Track Severe Weather on mobile